sensor_id;sensor_type;location;lat;lon;timestamp;P1;durP1;ratioP1;P2;durP2;ratioP2
78156;SDS011;67400;49.360;8.266;2023-04-24T07:34:48;2.63;;;1.83;;
78156;SDS011;67400;49.360;8.266;2023-04-24T07:36:08;1.92;;;1.50;;
78156;SDS011;67400;49.360;8.266;2023-04-24T07:37:34;5.07;;;1.67;;
78156;SDS011;67400;49.360;8.266;2023-04-24T07:38:54;2.45;;;1.40;;
78156;SDS011;67400;49.360;8.266;2023-04-24T07:40:14;3.10;;;1.17;;
78156;SDS011;67400;49.360;8.266;2023-04-24T07:41:34;4.85;;;1.73;;
78156;SDS011;67400;49.360;8.266;2023-04-24T07:42:54;2.60;;;1.58;;
78156;SDS011;67400;49.360;8.266;2023-04-24T07:44:13;2.10;;;1.52;;
78156;SDS011;67400;49.360;8.266;2023-04-24T07:45:34;2.92;;;1.60;;
78156;SDS011;67400;49.360;8.266;2023-04-24T07:46:56;1.40;;;1.30;;
78156;SDS011;67400;49.360;8.266;2023-04-24T07:48:16;3.85;;;1.60;;
78156;SDS011;67400;49.360;8.266;2023-04-24T07:49:36;1.70;;;1.60;;
78156;SDS011;67400;49.360;8.266;2023-04-24T07:50:56;7.05;;;1.30;;
78156;SDS011;67400;49.360;8.266;2023-04-24T07:52:15;2.17;;;1.30;;
78156;SDS011;67400;49.360;8.266;2023-04-24T07:53:35;2.28;;;1.40;;
78156;SDS011;67400;49.360;8.266;2023-04-24T07:54:54;1.90;;;1.30;;
78156;SDS011;67400;49.360;8.266;2023-04-24T07:56:16;1.63;;;1.42;;
78156;SDS011;67400;49.360;8.266;2023-04-24T07:57:36;2.85;;;1.45;;
78156;SDS011;67400;49.360;8.266;2023-04-24T07:58:56;2.10;;;1.30;;
78156;SDS011;67400;49.360;8.266;2023-04-24T08:00:15;3.45;;;1.33;;
78156;SDS011;67400;49.360;8.266;2023-04-24T08:01:35;4.10;;;1.40;;
78156;SDS011;67400;49.360;8.266;2023-04-24T08:02:55;2.50;;;1.38;;
78156;SDS011;67400;49.360;8.266;2023-04-24T08:04:15;1.58;;;1.10;;
78156;SDS011;67400;49.360;8.266;2023-04-24T08:05:36;1.85;;;1.13;;
78156;SDS011;67400;49.360;8.266;2023-04-24T08:06:56;3.15;;;1.50;;
78156;SDS011;67400;49.360;8.266;2023-04-24T08:08:15;1.83;;;1.30;;
78156;SDS011;67400;49.360;8.266;2023-04-24T08:09:35;2.25;;;1.10;;
78156;SDS011;67400;49.360;8.266;2023-04-24T08:10:54;1.63;;;1.20;;
78156;SDS011;67400;49.360;8.266;2023-04-24T08:12:14;1.73;;;1.20;;
78156;SDS011;67400;49.360;8.266;2023-04-24T08:13:34;2.72;;;1.23;;
78156;SDS011;67400;49.360;8.266;2023-04-24T08:14:54;2.90;;;1.50;;
78156;SDS011;67400;49.360;8.266;2023-04-24T08:16:14;4.30;;;1.45;;
78156;SDS011;67400;49.360;8.266;2023-04-24T08:17:36;1.55;;;1.40;;
78156;SDS011;67400;49.360;8.266;2023-04-24T08:18:56;2.35;;;1.45;;
78156;SDS011;67400;49.360;8.266;2023-04-24T08:20:16;3.17;;;1.30;;
78156;SDS011;67400;49.360;8.266;2023-04-24T08:21:36;3.25;;;1.33;;
78156;SDS011;67400;49.360;8.266;2023-04-24T08:22:55;1.80;;;1.25;;
78156;SDS011;67400;49.360;8.266;2023-04-24T08:24:15;3.55;;;1.40;;
78156;SDS011;67400;49.360;8.266;2023-04-24T08:25:35;5.03;;;1.50;;
78156;SDS011;67400;49.360;8.266;2023-04-24T08:26:54;3.10;;;1.50;;
78156;SDS011;67400;49.360;8.266;2023-04-24T08:28:15;2.47;;;1.35;;
78156;SDS011;67400;49.360;8.266;2023-04-24T08:29:38;3.15;;;1.40;;
78156;SDS011;67400;49.360;8.266;2023-04-24T08:30:58;3.08;;;1.60;;
78156;SDS011;67400;49.360;8.266;2023-04-24T08:32:17;1.92;;;1.30;;
78156;SDS011;67400;49.360;8.266;2023-04-24T08:33:37;1.92;;;1.50;;
78156;SDS011;67400;49.360;8.266;2023-04-24T08:34:57;1.40;;;1.23;;
78156;SDS011;67400;49.360;8.266;2023-04-24T08:36:16;6.35;;;2.03;;
78156;SDS011;67400;49.360;8.266;2023-04-24T08:37:36;2.58;;;1.70;;
78156;SDS011;67400;49.360;8.266;2023-04-24T08:38:56;3.72;;;1.60;;
78156;SDS011;67400;49.360;8.266;2023-04-24T08:40:16;2.15;;;1.20;;
78156;SDS011;67400;49.360;8.266;2023-04-24T08:41:36;2.58;;;1.38;;
78156;SDS011;67400;49.360;8.266;2023-04-24T08:42:56;1.65;;;1.52;;
78156;SDS011;67400;49.360;8.266;2023-04-24T08:44:16;3.30;;;1.58;;
78156;SDS011;67400;49.360;8.266;2023-04-24T08:45:36;1.55;;;1.33;;
78156;SDS011;67400;49.360;8.266;2023-04-24T08:46:56;2.67;;;1.67;;
78156;SDS011;67400;49.360;8.266;2023-04-24T08:48:16;2.85;;;1.40;;
78156;SDS011;67400;49.360;8.266;2023-04-24T08:49:37;3.30;;;1.60;;
78156;SDS011;67400;49.360;8.266;2023-04-24T08:50:58;4.82;;;2.17;;
78156;SDS011;67400;49.360;8.266;2023-04-24T08:52:18;2.63;;;1.55;;
78156;SDS011;67400;49.360;8.266;2023-04-24T08:53:39;2.45;;;1.48;;
78156;SDS011;67400;49.360;8.266;2023-04-24T08:54:59;4.00;;;1.60;;
78156;SDS011;67400;49.360;8.266;2023-04-24T08:56:20;1.65;;;1.35;;
78156;SDS011;67400;49.360;8.266;2023-04-24T08:57:41;2.03;;;1.30;;
78156;SDS011;67400;49.360;8.266;2023-04-24T08:59:04;2.17;;;1.30;;
78156;SDS011;67400;49.360;8.266;2023-04-24T09:00:24;3.42;;;1.40;;
78156;SDS011;67400;49.360;8.266;2023-04-24T09:01:44;2.55;;;1.55;;
78156;SDS011;67400;49.360;8.266;2023-04-24T09:03:04;5.85;;;1.80;;
78156;SDS011;67400;49.360;8.266;2023-04-24T09:04:25;2.65;;;1.60;;
78156;SDS011;67400;49.360;8.266;2023-04-24T09:05:46;2.38;;;1.63;;
78156;SDS011;67400;49.360;8.266;2023-04-24T09:07:06;2.50;;;1.65;;
78156;SDS011;67400;49.360;8.266;2023-04-24T09:08:25;2.55;;;1.40;;
78156;SDS011;67400;49.360;8.266;2023-04-24T09:09:45;3.35;;;1.70;;
78156;SDS011;67400;49.360;8.266;2023-04-24T09:11:05;2.08;;;1.75;;
78156;SDS011;67400;49.360;8.266;2023-04-24T09:12:25;2.60;;;1.63;;
78156;SDS011;67400;49.360;8.266;2023-04-24T09:13:44;3.35;;;1.73;;
78156;SDS011;67400;49.360;8.266;2023-04-24T09:15:04;2.20;;;1.55;;
78156;SDS011;67400;49.360;8.266;2023-04-24T09:16:26;2.35;;;1.67;;
78156;SDS011;67400;49.360;8.266;2023-04-24T09:17:46;2.65;;;1.80;;
78156;SDS011;67400;49.360;8.266;2023-04-24T09:19:06;2.30;;;1.50;;
78156;SDS011;67400;49.360;8.266;2023-04-24T09:20:25;5.10;;;2.00;;
78156;SDS011;67400;49.360;8.266;2023-04-24T09:21:45;4.80;;;2.05;;
78156;SDS011;67400;49.360;8.266;2023-04-24T09:23:05;2.22;;;1.50;;
78156;SDS011;67400;49.360;8.266;2023-04-24T09:24:25;2.90;;;1.80;;
78156;SDS011;67400;49.360;8.266;2023-04-24T09:25:44;2.47;;;1.70;;
78156;SDS011;67400;49.360;8.266;2023-04-24T09:27:04;2.78;;;2.20;;
78156;SDS011;67400;49.360;8.266;2023-04-24T09:28:31;4.80;;;2.05;;
78156;SDS011;67400;49.360;8.266;2023-04-24T09:29:55;3.55;;;1.83;;
78156;SDS011;67400;49.360;8.266;2023-04-24T09:31:15;4.25;;;1.63;;
78156;SDS011;67400;49.360;8.266;2023-04-24T09:32:37;2.90;;;1.88;;
78156;SDS011;67400;49.360;8.266;2023-04-24T09:33:57;2.22;;;1.67;;
78156;SDS011;67400;49.360;8.266;2023-04-24T09:35:17;6.78;;;2.33;;
78156;SDS011;67400;49.360;8.266;2023-04-24T09:36:38;4.38;;;2.30;;
78156;SDS011;67400;49.360;8.266;2023-04-24T09:37:58;3.75;;;2.15;;
78156;SDS011;67400;49.360;8.266;2023-04-24T09:39:17;3.10;;;2.20;;
78156;SDS011;67400;49.360;8.266;2023-04-24T09:40:40;2.75;;;1.85;;
78156;SDS011;67400;49.360;8.266;2023-04-24T09:42:00;2.67;;;1.90;;
78156;SDS011;67400;49.360;8.266;2023-04-24T09:43:20;3.80;;;1.88;;
78156;SDS011;67400;49.360;8.266;2023-04-24T09:44:40;2.60;;;1.90;;
78156;SDS011;67400;49.360;8.266;2023-04-24T09:46:04;5.80;;;2.50;;
78156;SDS011;67400;49.360;8.266;2023-04-24T09:47:23;2.97;;;1.98;;
78156;SDS011;67400;49.360;8.266;2023-04-24T09:48:43;4.03;;;2.20;;
78156;SDS011;67400;49.360;8.266;2023-04-24T09:50:10;3.20;;;1.80;;
78156;SDS011;67400;49.360;8.266;2023-04-24T09:51:34;4.68;;;2.10;;
78156;SDS011;67400;49.360;8.266;2023-04-24T09:52:58;3.22;;;1.67;;
78156;SDS011;67400;49.360;8.266;2023-04-24T09:54:20;3.65;;;1.98;;
78156;SDS011;67400;49.360;8.266;2023-04-24T09:55:42;3.83;;;1.58;;
78156;SDS011;67400;49.360;8.266;2023-04-24T09:57:06;2.85;;;1.50;;
78156;SDS011;67400;49.360;8.266;2023-04-24T09:58:27;2.40;;;1.30;;
78156;SDS011;67400;49.360;8.266;2023-04-24T09:59:47;2.22;;;1.40;;
78156;SDS011;67400;49.360;8.266;2023-04-24T10:01:07;2.38;;;1.42;;
78156;SDS011;67400;49.360;8.266;2023-04-24T10:02:26;3.33;;;1.42;;
78156;SDS011;67400;49.360;8.266;2023-04-24T10:03:46;2.58;;;1.63;;
78156;SDS011;67400;49.360;8.266;2023-04-24T10:05:05;2.83;;;1.38;;
78156;SDS011;67400;49.360;8.266;2023-04-24T10:06:34;2.10;;;1.50;;
78156;SDS011;67400;49.360;8.266;2023-04-24T10:07:59;1.60;;;1.40;;
78156;SDS011;67400;49.360;8.266;2023-04-24T10:09:21;2.58;;;1.50;;
78156;SDS011;67400;49.360;8.266;2023-04-24T10:10:42;2.33;;;1.25;;
78156;SDS011;67400;49.360;8.266;2023-04-24T10:12:01;2.20;;;1.40;;
78156;SDS011;67400;49.360;8.266;2023-04-24T10:13:21;3.22;;;1.50;;
78156;SDS011;67400;49.360;8.266;2023-04-24T10:14:41;3.45;;;1.60;;
78156;SDS011;67400;49.360;8.266;2023-04-24T10:16:00;5.05;;;1.60;;
78156;SDS011;67400;49.360;8.266;2023-04-24T10:17:21;3.88;;;1.70;;
78156;SDS011;67400;49.360;8.266;2023-04-24T10:18:42;2.45;;;1.38;;
78156;SDS011;67400;49.360;8.266;2023-04-24T10:20:02;3.15;;;1.65;;
78156;SDS011;67400;49.360;8.266;2023-04-24T10:21:21;2.75;;;1.50;;
78156;SDS011;67400;49.360;8.266;2023-04-24T10:22:42;3.90;;;1.40;;
78156;SDS011;67400;49.360;8.266;2023-04-24T10:24:02;2.60;;;1.70;;
78156;SDS011;67400;49.360;8.266;2023-04-24T10:25:24;2.20;;;1.60;;
78156;SDS011;67400;49.360;8.266;2023-04-24T10:26:45;2.92;;;1.45;;
78156;SDS011;67400;49.360;8.266;2023-04-24T10:28:07;3.08;;;1.65;;
78156;SDS011;67400;49.360;8.266;2023-04-24T10:29:26;3.28;;;1.77;;
78156;SDS011;67400;49.360;8.266;2023-04-24T10:30:46;2.50;;;1.60;;
78156;SDS011;67400;49.360;8.266;2023-04-24T10:32:07;4.38;;;1.77;;
78156;SDS011;67400;49.360;8.266;2023-04-24T10:33:29;3.90;;;1.85;;
78156;SDS011;67400;49.360;8.266;2023-04-24T10:34:49;2.90;;;1.77;;
78156;SDS011;67400;49.360;8.266;2023-04-24T10:36:10;2.70;;;1.65;;
78156;SDS011;67400;49.360;8.266;2023-04-24T10:37:33;4.75;;;1.70;;
78156;SDS011;67400;49.360;8.266;2023-04-24T10:38:54;3.60;;;1.90;;
78156;SDS011;67400;49.360;8.266;2023-04-24T10:40:17;3.33;;;1.98;;
78156;SDS011;67400;49.360;8.266;2023-04-24T10:41:37;3.03;;;2.10;;
78156;SDS011;67400;49.360;8.266;2023-04-24T10:42:58;3.78;;;2.15;;
78156;SDS011;67400;49.360;8.266;2023-04-24T10:44:17;3.58;;;2.22;;
78156;SDS011;67400;49.360;8.266;2023-04-24T10:45:37;5.20;;;2.20;;
78156;SDS011;67400;49.360;8.266;2023-04-24T10:46:57;4.60;;;2.42;;
78156;SDS011;67400;49.360;8.266;2023-04-24T10:48:16;2.72;;;2.15;;
78156;SDS011;67400;49.360;8.266;2023-04-24T10:49:36;3.05;;;1.90;;
78156;SDS011;67400;49.360;8.266;2023-04-24T10:50:56;2.50;;;2.08;;
78156;SDS011;67400;49.360;8.266;2023-04-24T10:52:15;5.55;;;2.53;;
78156;SDS011;67400;49.360;8.266;2023-04-24T10:53:35;4.00;;;2.45;;
78156;SDS011;67400;49.360;8.266;2023-04-24T10:54:55;3.70;;;2.30;;
78156;SDS011;67400;49.360;8.266;2023-04-24T10:57:49;3.55;;;2.28;;
78156;SDS011;67400;49.360;8.266;2023-04-24T10:59:26;3.42;;;2.40;;
78156;SDS011;67400;49.360;8.266;2023-04-24T11:00:56;3.80;;;2.25;;
78156;SDS011;67400;49.360;8.266;2023-04-24T11:02:17;3.80;;;2.60;;
78156;SDS011;67400;49.360;8.266;2023-04-24T11:03:36;2.80;;;2.08;;
78156;SDS011;67400;49.360;8.266;2023-04-24T11:05:02;3.28;;;2.40;;
78156;SDS011;67400;49.360;8.266;2023-04-24T11:06:32;5.32;;;3.10;;
78156;SDS011;67400;49.360;8.266;2023-04-24T11:09:32;3.25;;;2.20;;
78156;SDS011;67400;49.360;8.266;2023-04-24T11:11:08;4.97;;;2.15;;
78156;SDS011;67400;49.360;8.266;2023-04-24T11:12:28;4.35;;;2.72;;
78156;SDS011;67400;49.360;8.266;2023-04-24T11:15:14;7.05;;;2.70;;
78156;SDS011;67400;49.360;8.266;2023-04-24T11:18:00;3.38;;;2.60;;
78156;SDS011;67400;49.360;8.266;2023-04-24T11:19:26;4.80;;;2.40;;
78156;SDS011;67400;49.360;8.266;2023-04-24T11:20:47;7.55;;;2.67;;
78156;SDS011;67400;49.360;8.266;2023-04-24T11:22:14;5.15;;;2.83;;
78156;SDS011;67400;49.360;8.266;2023-04-24T11:23:35;4.85;;;2.60;;
78156;SDS011;67400;49.360;8.266;2023-04-24T11:24:56;3.83;;;2.60;;
78156;SDS011;67400;49.360;8.266;2023-04-24T11:26:22;4.95;;;2.78;;
78156;SDS011;67400;49.360;8.266;2023-04-24T11:27:49;4.32;;;2.75;;
78156;SDS011;67400;49.360;8.266;2023-04-24T11:29:08;5.25;;;2.80;;
78156;SDS011;67400;49.360;8.266;2023-04-24T11:30:29;5.93;;;2.85;;
78156;SDS011;67400;49.360;8.266;2023-04-24T11:31:48;7.05;;;2.75;;
78156;SDS011;67400;49.360;8.266;2023-04-24T11:33:10;4.50;;;2.63;;
78156;SDS011;67400;49.360;8.266;2023-04-24T11:34:29;4.93;;;3.10;;
78156;SDS011;67400;49.360;8.266;2023-04-24T11:35:49;5.95;;;2.95;;
78156;SDS011;67400;49.360;8.266;2023-04-24T11:37:10;3.58;;;2.45;;
78156;SDS011;67400;49.360;8.266;2023-04-24T11:38:30;4.63;;;2.80;;
78156;SDS011;67400;49.360;8.266;2023-04-24T11:39:51;3.97;;;2.78;;
78156;SDS011;67400;49.360;8.266;2023-04-24T11:41:11;3.95;;;2.60;;
78156;SDS011;67400;49.360;8.266;2023-04-24T11:42:38;6.13;;;2.70;;
78156;SDS011;67400;49.360;8.266;2023-04-24T11:43:57;3.70;;;2.30;;
78156;SDS011;67400;49.360;8.266;2023-04-24T11:45:29;6.68;;;2.80;;
78156;SDS011;67400;49.360;8.266;2023-04-24T11:46:49;7.93;;;2.78;;
78156;SDS011;67400;49.360;8.266;2023-04-24T11:48:09;3.83;;;2.45;;
78156;SDS011;67400;49.360;8.266;2023-04-24T11:49:29;4.72;;;2.65;;
78156;SDS011;67400;49.360;8.266;2023-04-24T11:50:48;4.00;;;2.47;;
78156;SDS011;67400;49.360;8.266;2023-04-24T11:52:08;5.72;;;2.53;;
78156;SDS011;67400;49.360;8.266;2023-04-24T11:53:30;4.65;;;2.40;;
78156;SDS011;67400;49.360;8.266;2023-04-24T11:54:50;4.78;;;2.60;;
78156;SDS011;67400;49.360;8.266;2023-04-24T11:56:10;3.53;;;2.50;;
78156;SDS011;67400;49.360;8.266;2023-04-24T11:57:29;4.55;;;2.58;;
78156;SDS011;67400;49.360;8.266;2023-04-24T11:58:54;4.22;;;2.40;;
78156;SDS011;67400;49.360;8.266;2023-04-24T12:00:15;4.28;;;2.45;;
78156;SDS011;67400;49.360;8.266;2023-04-24T12:01:45;4.75;;;2.50;;
78156;SDS011;67400;49.360;8.266;2023-04-24T12:03:05;3.13;;;2.08;;
78156;SDS011;67400;49.360;8.266;2023-04-24T12:04:25;2.92;;;2.47;;
78156;SDS011;67400;49.360;8.266;2023-04-24T12:05:45;4.10;;;2.40;;
78156;SDS011;67400;49.360;8.266;2023-04-24T12:07:04;5.18;;;2.28;;
78156;SDS011;67400;49.360;8.266;2023-04-24T12:08:28;4.47;;;2.30;;
78156;SDS011;67400;49.360;8.266;2023-04-24T12:09:49;4.45;;;2.33;;
78156;SDS011;67400;49.360;8.266;2023-04-24T12:11:09;5.35;;;2.60;;
78156;SDS011;67400;49.360;8.266;2023-04-24T12:12:30;5.72;;;2.40;;
78156;SDS011;67400;49.360;8.266;2023-04-24T12:13:50;4.18;;;2.20;;
78156;SDS011;67400;49.360;8.266;2023-04-24T12:15:09;4.57;;;2.63;;
78156;SDS011;67400;49.360;8.266;2023-04-24T12:16:30;3.67;;;2.30;;
78156;SDS011;67400;49.360;8.266;2023-04-24T12:17:52;4.75;;;2.00;;
78156;SDS011;67400;49.360;8.266;2023-04-24T12:19:14;4.35;;;2.60;;
78156;SDS011;67400;49.360;8.266;2023-04-24T12:20:37;4.22;;;2.15;;
78156;SDS011;67400;49.360;8.266;2023-04-24T12:22:01;4.63;;;2.40;;
78156;SDS011;67400;49.360;8.266;2023-04-24T12:23:34;2.78;;;2.10;;
78156;SDS011;67400;49.360;8.266;2023-04-24T12:24:57;3.38;;;2.10;;
78156;SDS011;67400;49.360;8.266;2023-04-24T12:26:17;7.22;;;2.20;;
78156;SDS011;67400;49.360;8.266;2023-04-24T12:27:38;3.38;;;2.13;;
78156;SDS011;67400;49.360;8.266;2023-04-24T12:29:01;4.15;;;2.08;;
78156;SDS011;67400;49.360;8.266;2023-04-24T12:30:21;4.22;;;1.92;;
78156;SDS011;67400;49.360;8.266;2023-04-24T12:31:40;4.50;;;2.20;;
78156;SDS011;67400;49.360;8.266;2023-04-24T12:33:00;2.83;;;2.13;;
78156;SDS011;67400;49.360;8.266;2023-04-24T12:34:20;5.40;;;2.63;;
78156;SDS011;67400;49.360;8.266;2023-04-24T12:35:40;4.22;;;2.30;;
78156;SDS011;67400;49.360;8.266;2023-04-24T12:37:10;9.63;;;2.45;;
78156;SDS011;67400;49.360;8.266;2023-04-24T12:38:30;3.13;;;2.20;;
78156;SDS011;67400;49.360;8.266;2023-04-24T12:40:08;4.65;;;2.10;;
78156;SDS011;67400;49.360;8.266;2023-04-24T12:41:30;7.05;;;2.72;;
78156;SDS011;67400;49.360;8.266;2023-04-24T12:42:50;3.67;;;2.47;;
78156;SDS011;67400;49.360;8.266;2023-04-24T12:44:10;4.10;;;2.53;;
78156;SDS011;67400;49.360;8.266;2023-04-24T12:45:30;3.97;;;2.33;;
78156;SDS011;67400;49.360;8.266;2023-04-24T12:46:50;6.57;;;2.75;;
78156;SDS011;67400;49.360;8.266;2023-04-24T12:48:10;4.30;;;2.55;;
78156;SDS011;67400;49.360;8.266;2023-04-24T12:49:30;4.80;;;2.70;;
78156;SDS011;67400;49.360;8.266;2023-04-24T12:50:49;3.50;;;2.53;;
78156;SDS011;67400;49.360;8.266;2023-04-24T12:52:09;6.55;;;2.80;;
78156;SDS011;67400;49.360;8.266;2023-04-24T12:53:29;5.20;;;2.47;;
78156;SDS011;67400;49.360;8.266;2023-04-24T12:54:50;5.38;;;2.47;;
78156;SDS011;67400;49.360;8.266;2023-04-24T12:56:09;5.30;;;2.55;;
78156;SDS011;67400;49.360;8.266;2023-04-24T12:57:29;4.18;;;2.25;;
78156;SDS011;67400;49.360;8.266;2023-04-24T12:58:49;4.78;;;2.95;;
78156;SDS011;67400;49.360;8.266;2023-04-24T13:00:10;4.78;;;2.70;;
78156;SDS011;67400;49.360;8.266;2023-04-24T13:01:30;4.50;;;2.42;;
78156;SDS011;67400;49.360;8.266;2023-04-24T13:02:50;5.57;;;3.08;;
78156;SDS011;67400;49.360;8.266;2023-04-24T13:04:09;3.58;;;2.40;;
78156;SDS011;67400;49.360;8.266;2023-04-24T13:05:29;4.03;;;2.50;;
78156;SDS011;67400;49.360;8.266;2023-04-24T13:06:49;5.32;;;2.30;;
78156;SDS011;67400;49.360;8.266;2023-04-24T13:08:08;5.88;;;2.20;;
78156;SDS011;67400;49.360;8.266;2023-04-24T13:09:28;5.05;;;2.50;;
78156;SDS011;67400;49.360;8.266;2023-04-24T13:10:48;4.80;;;2.60;;
78156;SDS011;67400;49.360;8.266;2023-04-24T13:12:09;3.47;;;2.67;;
78156;SDS011;67400;49.360;8.266;2023-04-24T13:13:28;5.30;;;2.58;;
78156;SDS011;67400;49.360;8.266;2023-04-24T13:14:48;5.22;;;2.50;;
78156;SDS011;67400;49.360;8.266;2023-04-24T13:16:08;6.05;;;2.75;;
78156;SDS011;67400;49.360;8.266;2023-04-24T13:17:28;5.10;;;2.80;;
78156;SDS011;67400;49.360;8.266;2023-04-24T13:18:47;6.88;;;3.05;;
78156;SDS011;67400;49.360;8.266;2023-04-24T13:20:07;5.85;;;2.42;;
78156;SDS011;67400;49.360;8.266;2023-04-24T13:21:26;4.53;;;2.38;;
78156;SDS011;67400;49.360;8.266;2023-04-24T13:22:46;8.07;;;2.72;;
78156;SDS011;67400;49.360;8.266;2023-04-24T13:24:06;5.88;;;2.45;;
78156;SDS011;67400;49.360;8.266;2023-04-24T13:25:26;2.30;;;2.00;;
78156;SDS011;67400;49.360;8.266;2023-04-24T13:26:46;3.25;;;2.47;;
78156;SDS011;67400;49.360;8.266;2023-04-24T13:28:06;4.20;;;2.63;;
78156;SDS011;67400;49.360;8.266;2023-04-24T13:29:25;6.28;;;2.67;;
78156;SDS011;67400;49.360;8.266;2023-04-24T13:30:45;5.78;;;2.55;;
78156;SDS011;67400;49.360;8.266;2023-04-24T13:32:07;5.60;;;2.22;;
78156;SDS011;67400;49.360;8.266;2023-04-24T13:33:27;6.78;;;2.35;;
78156;SDS011;67400;49.360;8.266;2023-04-24T13:34:46;4.78;;;2.65;;
78156;SDS011;67400;49.360;8.266;2023-04-24T13:36:06;3.03;;;2.22;;
78156;SDS011;67400;49.360;8.266;2023-04-24T13:37:26;3.78;;;2.05;;
78156;SDS011;67400;49.360;8.266;2023-04-24T13:38:45;4.32;;;2.42;;
78156;SDS011;67400;49.360;8.266;2023-04-24T13:40:05;4.80;;;2.45;;
78156;SDS011;67400;49.360;8.266;2023-04-24T13:41:25;6.10;;;2.10;;
78156;SDS011;67400;49.360;8.266;2023-04-24T13:42:44;5.30;;;2.22;;
78156;SDS011;67400;49.360;8.266;2023-04-24T13:44:04;6.60;;;2.35;;
78156;SDS011;67400;49.360;8.266;2023-04-24T13:45:24;4.43;;;2.20;;
78156;SDS011;67400;49.360;8.266;2023-04-24T13:46:44;5.97;;;2.75;;
78156;SDS011;67400;49.360;8.266;2023-04-24T13:48:04;5.45;;;2.58;;
78156;SDS011;67400;49.360;8.266;2023-04-24T13:49:24;3.80;;;2.10;;
78156;SDS011;67400;49.360;8.266;2023-04-24T13:50:44;5.38;;;2.40;;
78156;SDS011;67400;49.360;8.266;2023-04-24T13:52:06;6.20;;;2.10;;
78156;SDS011;67400;49.360;8.266;2023-04-24T13:53:26;4.05;;;1.80;;
78156;SDS011;67400;49.360;8.266;2023-04-24T13:54:45;3.70;;;2.15;;
78156;SDS011;67400;49.360;8.266;2023-04-24T13:56:05;4.05;;;1.80;;
78156;SDS011;67400;49.360;8.266;2023-04-24T13:57:24;4.00;;;2.15;;
78156;SDS011;67400;49.360;8.266;2023-04-24T13:58:44;4.18;;;2.00;;
78156;SDS011;67400;49.360;8.266;2023-04-24T14:00:04;4.65;;;1.90;;
78156;SDS011;67400;49.360;8.266;2023-04-24T14:01:26;3.92;;;2.10;;
78156;SDS011;67400;49.360;8.266;2023-04-24T14:02:45;4.03;;;2.33;;
78156;SDS011;67400;49.360;8.266;2023-04-24T14:04:05;4.78;;;2.58;;
78156;SDS011;67400;49.360;8.266;2023-04-24T14:05:24;3.38;;;2.30;;
78156;SDS011;67400;49.360;8.266;2023-04-24T14:06:44;4.80;;;2.35;;
78156;SDS011;67400;49.360;8.266;2023-04-24T14:08:03;3.05;;;2.13;;
78156;SDS011;67400;49.360;8.266;2023-04-24T14:09:24;5.97;;;2.28;;
78156;SDS011;67400;49.360;8.266;2023-04-24T14:10:44;4.32;;;2.53;;
78156;SDS011;67400;49.360;8.266;2023-04-24T14:12:04;2.58;;;2.00;;
78156;SDS011;67400;49.360;8.266;2023-04-24T14:13:24;3.70;;;2.17;;
78156;SDS011;67400;49.360;8.266;2023-04-24T14:14:44;5.10;;;2.40;;
78156;SDS011;67400;49.360;8.266;2023-04-24T14:16:03;5.43;;;2.53;;
78156;SDS011;67400;49.360;8.266;2023-04-24T14:17:23;4.20;;;2.13;;
78156;SDS011;67400;49.360;8.266;2023-04-24T14:18:43;4.80;;;2.33;;
78156;SDS011;67400;49.360;8.266;2023-04-24T14:20:04;7.43;;;3.22;;
78156;SDS011;67400;49.360;8.266;2023-04-24T14:21:24;4.13;;;2.63;;
78156;SDS011;67400;49.360;8.266;2023-04-24T14:22:43;3.78;;;2.45;;
78156;SDS011;67400;49.360;8.266;2023-04-24T14:24:03;5.03;;;2.92;;
78156;SDS011;67400;49.360;8.266;2023-04-24T14:25:23;3.78;;;2.88;;
78156;SDS011;67400;49.360;8.266;2023-04-24T14:26:42;4.80;;;2.85;;
78156;SDS011;67400;49.360;8.266;2023-04-24T14:28:02;6.65;;;2.90;;
78156;SDS011;67400;49.360;8.266;2023-04-24T14:29:21;6.43;;;3.13;;
78156;SDS011;67400;49.360;8.266;2023-04-24T14:30:41;3.92;;;3.00;;
78156;SDS011;67400;49.360;8.266;2023-04-24T14:32:01;6.05;;;3.00;;
78156;SDS011;67400;49.360;8.266;2023-04-24T14:33:20;4.70;;;2.38;;
78156;SDS011;67400;49.360;8.266;2023-04-24T14:34:40;4.80;;;2.55;;
78156;SDS011;67400;49.360;8.266;2023-04-24T14:36:00;3.47;;;2.53;;
78156;SDS011;67400;49.360;8.266;2023-04-24T14:37:21;6.53;;;2.78;;
78156;SDS011;67400;49.360;8.266;2023-04-24T14:38:41;4.60;;;2.00;;
78156;SDS011;67400;49.360;8.266;2023-04-24T14:40:00;2.05;;;1.60;;
78156;SDS011;67400;49.360;8.266;2023-04-24T14:41:20;2.40;;;1.85;;
78156;SDS011;67400;49.360;8.266;2023-04-24T14:42:39;4.88;;;2.40;;
78156;SDS011;67400;49.360;8.266;2023-04-24T14:43:59;4.45;;;2.28;;
78156;SDS011;67400;49.360;8.266;2023-04-24T14:45:18;3.70;;;1.98;;
78156;SDS011;67400;49.360;8.266;2023-04-24T14:46:38;4.13;;;2.17;;
78156;SDS011;67400;49.360;8.266;2023-04-24T14:47:58;4.10;;;1.95;;
78156;SDS011;67400;49.360;8.266;2023-04-24T14:49:18;4.93;;;2.20;;
78156;SDS011;67400;49.360;8.266;2023-04-24T14:50:38;2.70;;;2.22;;
78156;SDS011;67400;49.360;8.266;2023-04-24T14:51:58;3.13;;;2.13;;
78156;SDS011;67400;49.360;8.266;2023-04-24T14:53:18;5.57;;;2.38;;
78156;SDS011;67400;49.360;8.266;2023-04-24T14:54:37;3.58;;;2.47;;
78156;SDS011;67400;49.360;8.266;2023-04-24T14:55:57;3.10;;;2.25;;
78156;SDS011;67400;49.360;8.266;2023-04-24T14:57:16;4.30;;;2.30;;
78156;SDS011;67400;49.360;8.266;2023-04-24T14:58:36;4.20;;;2.20;;
78156;SDS011;67400;49.360;8.266;2023-04-24T14:59:55;3.55;;;2.50;;
78156;SDS011;67400;49.360;8.266;2023-04-24T15:01:15;3.85;;;2.33;;
78156;SDS011;67400;49.360;8.266;2023-04-24T15:02:35;4.53;;;2.88;;
78156;SDS011;67400;49.360;8.266;2023-04-24T15:03:58;5.38;;;2.30;;
78156;SDS011;67400;49.360;8.266;2023-04-24T15:05:18;4.82;;;2.55;;
78156;SDS011;67400;49.360;8.266;2023-04-24T15:06:37;4.38;;;2.13;;
78156;SDS011;67400;49.360;8.266;2023-04-24T15:07:57;4.00;;;2.13;;
78156;SDS011;67400;49.360;8.266;2023-04-24T15:09:16;3.30;;;2.30;;
78156;SDS011;67400;49.360;8.266;2023-04-24T15:10:36;3.08;;;2.03;;
78156;SDS011;67400;49.360;8.266;2023-04-24T15:11:55;3.75;;;2.60;;
78156;SDS011;67400;49.360;8.266;2023-04-24T15:13:16;3.90;;;2.33;;
78156;SDS011;67400;49.360;8.266;2023-04-24T15:14:35;4.72;;;2.60;;
78156;SDS011;67400;49.360;8.266;2023-04-24T15:15:55;5.70;;;2.72;;
78156;SDS011;67400;49.360;8.266;2023-04-24T15:17:14;3.60;;;2.20;;
78156;SDS011;67400;49.360;8.266;2023-04-24T15:18:34;4.30;;;2.67;;
78156;SDS011;67400;49.360;8.266;2023-04-24T15:19:53;2.70;;;2.00;;
78156;SDS011;67400;49.360;8.266;2023-04-24T15:21:13;4.70;;;2.63;;
78156;SDS011;67400;49.360;8.266;2023-04-24T15:22:33;4.93;;;2.33;;
78156;SDS011;67400;49.360;8.266;2023-04-24T15:23:53;3.53;;;2.13;;
78156;SDS011;67400;49.360;8.266;2023-04-24T15:25:13;5.43;;;2.53;;
78156;SDS011;67400;49.360;8.266;2023-04-24T15:26:33;5.28;;;2.80;;
78156;SDS011;67400;49.360;8.266;2023-04-24T15:27:53;3.67;;;2.55;;
78156;SDS011;67400;49.360;8.266;2023-04-24T15:29:12;6.57;;;2.70;;
78156;SDS011;67400;49.360;8.266;2023-04-24T15:30:32;5.03;;;2.55;;
78156;SDS011;67400;49.360;8.266;2023-04-24T15:31:51;4.45;;;2.65;;
78156;SDS011;67400;49.360;8.266;2023-04-24T15:33:11;5.47;;;2.20;;
78156;SDS011;67400;49.360;8.266;2023-04-24T15:34:30;4.22;;;2.40;;
78156;SDS011;67400;49.360;8.266;2023-04-24T15:35:51;5.55;;;2.60;;
78156;SDS011;67400;49.360;8.266;2023-04-24T15:37:11;5.80;;;2.83;;
78156;SDS011;67400;49.360;8.266;2023-04-24T15:38:30;2.47;;;1.90;;
78156;SDS011;67400;49.360;8.266;2023-04-24T15:39:50;3.13;;;2.10;;
78156;SDS011;67400;49.360;8.266;2023-04-24T15:41:10;2.47;;;1.88;;
78156;SDS011;67400;49.360;8.266;2023-04-24T15:42:30;1.88;;;1.52;;
78156;SDS011;67400;49.360;8.266;2023-04-24T15:43:50;2.78;;;1.85;;
78156;SDS011;67400;49.360;8.266;2023-04-24T15:45:10;7.22;;;1.77;;
78156;SDS011;67400;49.360;8.266;2023-04-24T15:46:30;7.88;;;1.95;;